Time;durP1;ratioP1;P1;durP2;ratioP2;P2;SDS_P1;SDS_P2;PMS_P1;PMS_P2;Temp;Humidity;BMP_temperature;BMP_pressure;BME280_temperature;BME280_humidity;BME280_pressure;Samples;Min_cycle;Max_cycle;Signal;HPM_P1;HPM_P2
2023/01/21 00:02:00;;;;;;;;;;;;;;;;;;5029365;28;19947;-86
2023/01/21 00:04:26;;;;;;;;;;;;;;;;;;5020622;28;19923;-91
2023/01/21 00:06:51;;;;;;;;;;;;;;;;;;5013388;28;19974;-86
2023/01/21 00:09:17;;;;;;;;;;;;;;;;;;5033582;28;19921;-84
2023/01/21 00:11:43;;;;;;;;;;;;;;;;;;5019115;28;19921;-83
2023/01/21 00:14:10;;;;;;;;;;;;;;;;;;5021651;28;19928;-86
2023/01/21 00:16:36;;;;;;;;;;;;;;;;;;5017259;28;20008;-86
2023/01/21 00:19:02;;;;;;;;;;;;;;;;;;5019446;28;20117;-86
2023/01/21 00:21:28;;;;;;;;;;;;;;;;;;5033311;28;20214;-85
2023/01/21 00:23:54;;;;;;;;;;;;;;;;;;5038773;28;19921;-85
2023/01/21 00:26:20;;;;;;;;;;;;;;;;;;5022206;28;19917;-84
2023/01/21 00:28:46;;;;;;;;;;;;;;;;;;5078056;23;19994;-85
2023/01/21 00:31:12;;;;;;;;;;;;;;;;;;5059355;28;20022;-85
2023/01/21 00:33:38;;;;;;;;;;;;;;;;;;5061192;28;19920;-83
2023/01/21 00:36:04;;;;;;;;;;;;;;;;;;5060082;28;19916;-84
2023/01/21 00:38:35;;;;;;;;;;;;;;;;;;5039314;28;19984;-85
2023/01/21 00:41:04;;;;;;;;;;;;;;;;;;5051062;28;19924;-86
2023/01/21 00:43:30;;;;;;;;;;;;;;;;;;5058385;28;19931;-83
2023/01/21 00:45:59;;;;;;;;;;;;;;;;;;5056756;28;20301;-88
2023/01/21 00:48:28;;;;;;;;;;;;;;;;;;5056906;28;20197;-84
2023/01/21 00:50:54;;;;;;;;;;;;;;;;;;5040176;28;19924;-85
2023/01/21 00:53:20;;;;;;;;;;;;;;;;;;5040239;28;19923;-86
2023/01/21 00:55:46;;;;;;;;;;;;;;;;;;5061787;28;19934;-86
2023/01/21 00:58:12;;;;;;;;;;;;;;;;;;5044386;28;19999;-85
2023/01/21 01:00:38;;;;;;;;;;;;;;;;;;5073446;28;19924;-86
2023/01/21 01:03:04;;;;;;;;;;;;;;;;;;5079550;28;19923;-86
2023/01/21 01:05:30;;;;;;;;;;;;;;;;;;5066364;28;20388;-84
2023/01/21 01:08:02;;;;;;;;;;;;;;;;;;5061167;28;19962;-86
2023/01/21 01:10:34;;;;;;;;;;;;;;;;;;5061574;28;20011;-83
2023/01/21 01:13:08;;;;;;;;;;;;;;;;;;5044327;28;19938;-84
2023/01/21 01:15:34;;;;;;;;;;;;;;;;;;5047727;28;19919;-86
2023/01/21 01:18:00;;;;;;;;;;;;;;;;;;5047876;28;19922;-85
2023/01/21 01:20:26;;;;;;;;;;;;;;;;;;5060972;28;19963;-85
2023/01/21 01:22:52;;;;;;;;;;;;;;;;;;5064900;28;20436;-86
2023/01/21 01:25:21;;;;;;;;;;;;;;;;;;5062204;28;20308;-84
2023/01/21 01:27:47;;;;;;;;;;;;;;;;;;5061138;28;20026;-86
2023/01/21 01:30:13;;;;;;;;;;;;;;;;;;5046252;28;19928;-84
2023/01/21 01:32:39;;;;;;;;;;;;;;;;;;5058170;28;20263;-86
2023/01/21 01:35:05;;;;;;;;;;;;;;;;;;5044439;28;19926;-87
2023/01/21 01:37:31;;;;;;;;;;;;;;;;;;5062319;28;19928;-85
2023/01/21 01:39:57;;;;;;;;;;;;;;;;;;5058619;28;20356;-86
2023/01/21 01:42:23;;;;;;;;;;;;;;;;;;5048751;28;19924;-85
2023/01/21 01:44:51;;;;;;;;;;;;;;;;;;5055164;28;19922;-83
2023/01/21 01:47:25;;;;;;;;;;;;;;;;;;5058981;28;19974;-85
2023/01/21 01:49:54;;;;;;;;;;;;;;;;;;5064190;28;19920;-82
2023/01/21 01:52:20;;;;;;;;;;;;;;;;;;5065790;28;20026;-83
2023/01/21 01:54:46;;;;;;;;;;;;;;;;;;5062249;28;19916;-84
2023/01/21 01:57:12;;;;;;;;;;;;;;;;;;5064109;28;19915;-87
2023/01/21 01:59:38;;;;;;;;;;;;;;;;;;5060760;28;20449;-86
2023/01/21 02:02:07;;;;;;;;;;;;;;;;;;5056712;28;20463;-85
2023/01/21 02:04:33;;;;;;;;;;;;;;;;;;5060375;28;19924;-84
2023/01/21 02:06:59;;;;;;;;;;;;;;;;;;5045823;28;19930;-85
2023/01/21 02:09:28;;;;;;;;;;;;;;;;;;5061034;28;19920;-85
2023/01/21 02:11:54;;;;;;;;;;;;;;;;;;5059990;28;19939;-86
2023/01/21 02:14:20;;;;;;;;;;;;;;;;;;5061005;28;19924;-84
2023/01/21 02:16:46;;;;;;;;;;;;;;;;;;5057079;28;19928;-85
2023/01/21 02:19:12;;;;;;;;;;;;;;;;;;5059239;28;19927;-85
2023/01/21 02:21:38;;;;;;;;;;;;;;;;;;5044739;28;19916;-83
2023/01/21 02:24:05;;;;;;;;;;;;;;;;;;5062942;28;19986;-86
2023/01/21 02:26:31;;;;;;;;;;;;;;;;;;5054315;28;20306;-85
2023/01/21 02:28:57;;;;;;;;;;;;;;;;;;5048770;28;19920;-86
2023/01/21 02:31:23;;;;;;;;;;;;;;;;;;5065405;28;19951;-86
2023/01/21 02:33:49;;;;;;;;;;;;;;;;;;5060173;28;19924;-84
2023/01/21 02:36:21;;;;;;;;;;;;;;;;;;5041303;28;19931;-85
2023/01/21 02:38:49;;;;;;;;;;;;;;;;;;5080244;28;20219;-85
2023/01/21 02:41:15;;;;;;;;;;;;;;;;;;5048039;28;20074;-87
2023/01/21 02:43:41;;;;;;;;;;;;;;;;;;5063835;28;20002;-84
2023/01/21 02:46:07;;;;;;;;;;;;;;;;;;5058344;28;19923;-82
2023/01/21 02:48:33;;;;;;;;;;;;;;;;;;5059726;28;20013;-83
2023/01/21 02:51:01;;;;;;;;;;;;;;;;;;5056509;28;20355;-86
2023/01/21 02:53:27;;;;;;;;;;;;;;;;;;5039848;28;19977;-86
2023/01/21 02:55:56;;;;;;;;;;;;;;;;;;5058875;28;19924;-84
2023/01/21 02:58:22;;;;;;;;;;;;;;;;;;5056641;28;21113;-83
2023/01/21 03:00:50;;;;;;;;;;;;;;;;;;5075434;28;20002;-83
2023/01/21 03:03:16;;;;;;;;;;;;;;;;;;5059662;28;19916;-84
2023/01/21 03:05:43;;;;;;;;;;;;;;;;;;5041572;28;19969;-83
2023/01/21 03:08:12;;;;;;;;;;;;;;;;;;5057249;28;19920;-83
2023/01/21 03:10:38;;;;;;;;;;;;;;;;;;5044595;28;20340;-83
2023/01/21 03:13:04;;;;;;;;;;;;;;;;;;5058673;28;19943;-83
2023/01/21 03:18:14;;;;;;;;;;;;;;;;;;5077343;28;19951;-83
2023/01/21 03:20:40;;;;;;;;;;;;;;;;;;5044890;28;20614;-83
2023/01/21 03:23:06;;;;;;;;;;;;;;;;;;5057295;28;19924;-84
2023/01/21 03:25:32;;;;;;;;;;;;;;;;;;5076734;28;19916;-83
2023/01/21 03:27:58;;;;;;;;;;;;;;;;;;5058931;28;19920;-83
2023/01/21 03:30:24;;;;;;;;;;;;;;;;;;5038793;28;19924;-83
2023/01/21 03:32:50;;;;;;;;;;;;;;;;;;5045453;28;19973;-83
2023/01/21 03:35:16;;;;;;;;;;;;;;;;;;5080733;28;19923;-83
2023/01/21 03:37:42;;;;;;;;;;;;;;;;;;5081732;28;19920;-83
2023/01/21 03:40:08;;;;;;;;;;;;;;;;;;5046602;28;19934;-83
2023/01/21 03:42:34;;;;;;;;;;;;;;;;;;5045303;28;20408;-83
2023/01/21 03:45:00;;;;;;;;;;;;;;;;;;5055530;28;19925;-82
2023/01/21 03:47:28;;;;;;;;;;;;;;;;;;5078356;28;20007;-83
2023/01/21 03:49:54;;;;;;;;;;;;;;;;;;5045183;28;19931;-82
2023/01/21 03:52:20;;;;;;;;;;;;;;;;;;5044232;28;19928;-83
2023/01/21 03:54:46;;;;;;;;;;;;;;;;;;5044472;28;21078;-83
2023/01/21 03:57:12;;;;;;;;;;;;;;;;;;5061119;28;19983;-83
2023/01/21 03:59:38;;;;;;;;;;;;;;;;;;5042951;28;21546;-82
2023/01/21 04:02:04;;;;;;;;;;;;;;;;;;5057767;28;19927;-83
2023/01/21 04:04:30;;;;;;;;;;;;;;;;;;5044051;28;19920;-83
2023/01/21 04:06:56;;;;;;;;;;;;;;;;;;5059358;28;19920;-82
2023/01/21 04:09:22;;;;;;;;;;;;;;;;;;5044294;28;19916;-83
2023/01/21 04:11:48;;;;;;;;;;;;;;;;;;5061696;28;21093;-83
2023/01/21 04:14:14;;;;;;;;;;;;;;;;;;5058863;28;19969;-83
2023/01/21 04:16:40;;;;;;;;;;;;;;;;;;5039833;28;20006;-83
2023/01/21 04:19:06;;;;;;;;;;;;;;;;;;5043969;28;20349;-83
2023/01/21 04:21:32;;;;;;;;;;;;;;;;;;5055067;28;19916;-83
2023/01/21 04:23:58;;;;;;;;;;;;;;;;;;5055825;28;19927;-83
2023/01/21 04:26:24;;;;;;;;;;;;;;;;;;5044453;28;20397;-82
2023/01/21 04:28:49;;;;;;;;;;;;;;;;;;5075926;28;19921;-82
2023/01/21 04:31:15;;;;;;;;;;;;;;;;;;5060440;28;19928;-83
2023/01/21 04:33:41;;;;;;;;;;;;;;;;;;5062143;28;19950;-83
2023/01/21 04:36:07;;;;;;;;;;;;;;;;;;5046217;28;19955;-83
2023/01/21 04:38:33;;;;;;;;;;;;;;;;;;5060431;28;19970;-83
2023/01/21 04:40:59;;;;;;;;;;;;;;;;;;5075906;28;19920;-83
2023/01/21 04:43:28;;;;;;;;;;;;;;;;;;5065924;28;20386;-83
2023/01/21 04:45:54;;;;;;;;;;;;;;;;;;5084434;28;19942;-83
2023/01/21 04:48:20;;;;;;;;;;;;;;;;;;5065007;28;19920;-83
2023/01/21 04:50:46;;;;;;;;;;;;;;;;;;5065276;28;19959;-83
2023/01/21 04:53:12;;;;;;;;;;;;;;;;;;5064608;28;19919;-83
2023/01/21 04:55:37;;;;;;;;;;;;;;;;;;5062243;28;20346;-84
2023/01/21 04:58:03;;;;;;;;;;;;;;;;;;5048690;28;20310;-83
2023/01/21 05:00:29;;;;;;;;;;;;;;;;;;5065883;28;19923;-84
2023/01/21 05:02:55;;;;;;;;;;;;;;;;;;5064373;28;19923;-83
2023/01/21 05:05:21;;;;;;;;;;;;;;;;;;5063440;28;19915;-83
2023/01/21 05:07:47;;;;;;;;;;;;;;;;;;5061418;28;19927;-83
2023/01/21 05:10:13;;;;;;;;;;;;;;;;;;5042544;28;20018;-84
2023/01/21 05:12:39;;;;;;;;;;;;;;;;;;5063433;28;19977;-84
2023/01/21 05:15:05;;;;;;;;;;;;;;;;;;5046421;28;21559;-83
2023/01/21 05:17:31;;;;;;;;;;;;;;;;;;5066254;28;19924;-84
2023/01/21 05:19:57;;;;;;;;;;;;;;;;;;5065407;28;19916;-84
2023/01/21 05:22:23;;;;;;;;;;;;;;;;;;5058669;28;20394;-83
2023/01/21 05:24:49;;;;;;;;;;;;;;;;;;5061444;28;19977;-84
2023/01/21 05:27:15;;;;;;;;;;;;;;;;;;5059730;28;19916;-83
2023/01/21 05:29:41;;;;;;;;;;;;;;;;;;5079883;28;19922;-84
2023/01/21 05:32:07;;;;;;;;;;;;;;;;;;5065027;28;19927;-84
2023/01/21 05:34:33;;;;;;;;;;;;;;;;;;5061865;28;20024;-83
2023/01/21 05:36:59;;;;;;;;;;;;;;;;;;5080905;28;19993;-83
2023/01/21 05:39:25;;;;;;;;;;;;;;;;;;5060263;28;19916;-83
2023/01/21 05:41:51;;;;;;;;;;;;;;;;;;5062399;28;20010;-83
2023/01/21 05:44:17;;;;;;;;;;;;;;;;;;5043586;28;19923;-83
2023/01/21 05:46:43;;;;;;;;;;;;;;;;;;5060958;28;19920;-83
2023/01/21 05:49:09;;;;;;;;;;;;;;;;;;5042493;28;20132;-82
2023/01/21 05:51:35;;;;;;;;;;;;;;;;;;5061247;28;19928;-84
2023/01/21 05:54:04;;;;;;;;;;;;;;;;;;5055496;28;19924;-83
2023/01/21 05:56:30;;;;;;;;;;;;;;;;;;5045489;28;19935;-83
2023/01/21 05:58:59;;;;;;;;;;;;;;;;;;5073754;28;19920;-83
2023/01/21 06:01:25;;;;;;;;;;;;;;;;;;5057741;28;20401;-84
2023/01/21 06:03:50;;;;;;;;;;;;;;;;;;5082791;28;19958;-83
2023/01/21 06:06:16;;;;;;;;;;;;;;;;;;5081110;28;20007;-83
2023/01/21 06:08:42;;;;;;;;;;;;;;;;;;5062058;28;20333;-83
2023/01/21 06:11:08;;;;;;;;;;;;;;;;;;5064635;28;20279;-83
2023/01/21 06:13:34;;;;;;;;;;;;;;;;;;5046224;28;19920;-83
2023/01/21 06:16:00;;;;;;;;;;;;;;;;;;5044859;28;20321;-83
2023/01/21 06:18:26;;;;;;;;;;;;;;;;;;5081429;28;19938;-83
2023/01/21 06:20:52;;;;;;;;;;;;;;;;;;5068723;28;19931;-83
2023/01/21 06:23:18;;;;;;;;;;;;;;;;;;5069950;28;20417;-83
2023/01/21 06:25:44;;;;;;;;;;;;;;;;;;5067156;28;20002;-84
2023/01/21 06:28:10;;;;;;;;;;;;;;;;;;5091836;22;20011;-84
2023/01/21 06:30:36;;;;;;;;;;;;;;;;;;5028284;28;19920;-83
2023/01/21 06:33:02;;;;;;;;;;;;;;;;;;5060116;28;19916;-84
2023/01/21 06:35:28;;;;;;;;;;;;;;;;;;5067972;28;20306;-84
2023/01/21 06:37:54;;;;;;;;;;;;;;;;;;5042582;28;19972;-85
2023/01/21 06:40:19;;;;;;;;;;;;;;;;;;5047294;28;19921;-84
2023/01/21 06:42:45;;;;;;;;;;;;;;;;;;5049531;28;20093;-85
2023/01/21 06:45:11;;;;;;;;;;;;;;;;;;5031665;28;20012;-84
2023/01/21 06:47:37;;;;;;;;;;;;;;;;;;5040333;28;19916;-85
2023/01/21 06:50:03;;;;;;;;;;;;;;;;;;5044329;28;19917;-84
2023/01/21 06:52:29;;;;;;;;;;;;;;;;;;5048812;28;19924;-85
2023/01/21 06:54:55;;;;;;;;;;;;;;;;;;5031082;28;19970;-85
2023/01/21 06:57:21;;;;;;;;;;;;;;;;;;5063598;28;19916;-84
2023/01/21 06:59:47;;;;;;;;;;;;;;;;;;5032708;28;19947;-83
2023/01/21 07:02:13;;;;;;;;;;;;;;;;;;5041817;28;19924;-84
2023/01/21 07:04:39;;;;;;;;;;;;;;;;;;5033343;28;19922;-84
2023/01/21 07:07:05;;;;;;;;;;;;;;;;;;5044056;28;19924;-84
2023/01/21 07:09:30;;;;;;;;;;;;;;;;;;5039894;28;20451;-85
2023/01/21 07:11:57;;;;;;;;;;;;;;;;;;5044035;28;20050;-84
2023/01/21 07:14:23;;;;;;;;;;;;;;;;;;5043938;28;19916;-84
2023/01/21 07:16:49;;;;;;;;;;;;;;;;;;5027240;28;20025;-85
2023/01/21 07:19:15;;;;;;;;;;;;;;;;;;5035607;28;19925;-85
2023/01/21 07:21:41;;;;;;;;;;;;;;;;;;5028603;28;20648;-83
2023/01/21 07:24:08;;;;;;;;;;;;;;;;;;5044475;28;19920;-85
2023/01/21 07:26:36;;;;;;;;;;;;;;;;;;5054984;28;19920;-84
2023/01/21 07:29:02;;;;;;;;;;;;;;;;;;5029711;28;19924;-83
2023/01/21 07:31:28;;;;;;;;;;;;;;;;;;5059295;28;19921;-84
2023/01/21 07:33:54;;;;;;;;;;;;;;;;;;5044598;28;20033;-85
2023/01/21 07:36:20;;;;;;;;;;;;;;;;;;5058411;28;20288;-85
2023/01/21 07:38:46;;;;;;;;;;;;;;;;;;5034265;28;19924;-84
2023/01/21 07:41:12;;;;;;;;;;;;;;;;;;5032389;28;19923;-84
2023/01/21 07:43:38;;;;;;;;;;;;;;;;;;5034746;28;19920;-84
2023/01/21 07:46:04;;;;;;;;;;;;;;;;;;5057598;28;19940;-84
2023/01/21 07:48:33;;;;;;;;;;;;;;;;;;5041855;28;20019;-85
2023/01/21 07:50:59;;;;;;;;;;;;;;;;;;5059235;28;20260;-84
2023/01/21 07:53:25;;;;;;;;;;;;;;;;;;5046049;28;19925;-85
2023/01/21 07:55:51;;;;;;;;;;;;;;;;;;5038936;28;19959;-84
2023/01/21 07:58:17;;;;;;;;;;;;;;;;;;5028713;28;19916;-84
2023/01/21 08:00:43;;;;;;;;;;;;;;;;;;5037468;28;19942;-83
2023/01/21 08:03:08;;;;;;;;;;;;;;;;;;5028888;28;19916;-84
2023/01/21 08:05:34;;;;;;;;;;;;;;;;;;5029272;28;19958;-83
2023/01/21 08:08:00;;;;;;;;;;;;;;;;;;5064214;28;20013;-84
2023/01/21 08:10:26;;;;;;;;;;;;;;;;;;5034937;28;19917;-82
2023/01/21 08:12:52;;;;;;;;;;;;;;;;;;5062464;28;19920;-84
2023/01/21 08:15:18;;;;;;;;;;;;;;;;;;5045334;28;19916;-83
2023/01/21 08:17:46;;;;;;;;;;;;;;;;;;5033188;28;19923;-84
2023/01/21 08:20:12;;;;;;;;;;;;;;;;;;5054298;28;20011;-83
2023/01/21 08:22:38;;;;;;;;;;;;;;;;;;5035147;28;19956;-82
2023/01/21 08:25:04;;;;;;;;;;;;;;;;;;5054222;28;19931;-83
2023/01/21 08:27:30;;;;;;;;;;;;;;;;;;5048995;28;20088;-83
2023/01/21 08:29:56;;;;;;;;;;;;;;;;;;5055007;28;19992;-84
2023/01/21 08:32:22;;;;;;;;;;;;;;;;;;5038092;28;19960;-84
2023/01/21 08:34:48;;;;;;;;;;;;;;;;;;5033859;28;20471;-84
2023/01/21 08:37:14;;;;;;;;;;;;;;;;;;5071556;28;20509;-83
2023/01/21 08:39:40;;;;;;;;;;;;;;;;;;5036964;28;19955;-83
2023/01/21 08:42:06;;;;;;;;;;;;;;;;;;5035376;28;19998;-84
2023/01/21 08:44:34;;;;;;;;;;;;;;;;;;5024503;28;19924;-84
2023/01/21 08:47:00;;;;;;;;;;;;;;;;;;5044305;28;19920;-82
2023/01/21 08:49:26;;;;;;;;;;;;;;;;;;5044225;28;19946;-84
2023/01/21 08:51:52;;;;;;;;;;;;;;;;;;5028662;28;20287;-83
2023/01/21 08:54:18;;;;;;;;;;;;;;;;;;5065563;28;19982;-83
2023/01/21 08:56:44;;;;;;;;;;;;;;;;;;5036484;28;19920;-82
2023/01/21 08:59:09;;;;;;;;;;;;;;;;;;5040820;28;24193;-84
2023/01/21 09:01:39;;;;;;;;;;;;;;;;;;5036868;28;19925;-83
2023/01/21 09:04:05;;;;;;;;;;;;;;;;;;5030702;28;19943;-83
2023/01/21 09:06:31;;;;;;;;;;;;;;;;;;5047483;28;19924;-83
2023/01/21 09:08:57;;;;;;;;;;;;;;;;;;5029496;28;19930;-82
2023/01/21 09:11:23;;;;;;;;;;;;;;;;;;5061392;28;19928;-82
2023/01/21 09:13:49;;;;;;;;;;;;;;;;;;5031444;28;19927;-83
2023/01/21 09:16:15;;;;;;;;;;;;;;;;;;5065942;28;19920;-83
2023/01/21 09:18:41;;;;;;;;;;;;;;;;;;5051524;28;20015;-83
2023/01/21 09:21:07;;;;;;;;;;;;;;;;;;5070477;28;19927;-81
2023/01/21 09:23:33;;;;;;;;;;;;;;;;;;5038809;28;20311;-83
2023/01/21 09:25:59;;;;;;;;;;;;;;;;;;5073955;28;20006;-84
2023/01/21 09:28:25;;;;;;;;;;;;;;;;;;5037317;28;19917;-83
2023/01/21 09:30:51;;;;;;;;;;;;;;;;;;5057961;28;19920;-84
2023/01/21 09:33:17;;;;;;;;;;;;;;;;;;5068117;28;19943;-83
2023/01/21 09:35:43;;;;;;;;;;;;;;;;;;5062468;28;21325;-83
2023/01/21 09:38:10;;;;;;;;;;;;;;;;;;5036960;28;19998;-83
2023/01/21 09:40:36;;;;;;;;;;;;;;;;;;5070964;28;19944;-83
2023/01/21 09:43:02;;;;;;;;;;;;;;;;;;5054392;28;19947;-84
2023/01/21 09:45:28;;;;;;;;;;;;;;;;;;5052459;28;19967;-84
2023/01/21 09:47:55;;;;;;;;;;;;;;;;;;5071948;28;19917;-83
2023/01/21 09:50:21;;;;;;;;;;;;;;;;;;5054550;28;19939;-83
2023/01/21 09:52:47;;;;;;;;;;;;;;;;;;5061093;28;19951;-84
2023/01/21 09:55:13;;;;;;;;;;;;;;;;;;5069841;28;19984;-83
2023/01/21 09:57:39;;;;;;;;;;;;;;;;;;5070890;28;20012;-83
2023/01/21 10:00:05;;;;;;;;;;;;;;;;;;5070309;28;19924;-84
2023/01/21 10:02:31;;;;;;;;;;;;;;;;;;5041014;28;19922;-83
2023/01/21 10:04:57;;;;;;;;;;;;;;;;;;5057156;28;19924;-84
2023/01/21 10:07:23;;;;;;;;;;;;;;;;;;5055639;28;19927;-84
2023/01/21 10:09:49;;;;;;;;;;;;;;;;;;5073464;28;19968;-83
2023/01/21 10:12:15;;;;;;;;;;;;;;;;;;5051377;28;19936;-84
2023/01/21 10:14:41;;;;;;;;;;;;;;;;;;5034394;28;19921;-83
2023/01/21 10:17:07;;;;;;;;;;;;;;;;;;5052488;28;19904;-83
2023/01/21 10:19:32;;;;;;;;;;;;;;;;;;5038208;28;19999;-83
2023/01/21 10:21:59;;;;;;;;;;;;;;;;;;5070075;28;19931;-83
2023/01/21 10:24:25;;;;;;;;;;;;;;;;;;5036760;28;19942;-84
2023/01/21 10:26:51;;;;;;;;;;;;;;;;;;5055142;28;19924;-84
2023/01/21 10:29:17;;;;;;;;;;;;;;;;;;5070212;28;19917;-83
2023/01/21 10:31:43;;;;;;;;;;;;;;;;;;5070418;28;19931;-84
2023/01/21 10:34:09;;;;;;;;;;;;;;;;;;5055871;28;19956;-84
2023/01/21 10:36:34;;;;;;;;;;;;;;;;;;5043747;28;19920;-83
2023/01/21 10:39:00;;;;;;;;;;;;;;;;;;5069393;28;19981;-83
2023/01/21 10:41:26;;;;;;;;;;;;;;;;;;5052595;28;20058;-84
2023/01/21 10:43:52;;;;;;;;;;;;;;;;;;5049340;28;19921;-84
2023/01/21 10:46:18;;;;;;;;;;;;;;;;;;5073227;28;20181;-84
2023/01/21 10:48:44;;;;;;;;;;;;;;;;;;5038937;28;19928;-83
2023/01/21 10:51:10;;;;;;;;;;;;;;;;;;5056141;28;19924;-84
2023/01/21 10:53:36;;;;;;;;;;;;;;;;;;5026950;28;19924;-84
2023/01/21 10:56:02;;;;;;;;;;;;;;;;;;5046807;28;19931;-83
2023/01/21 10:58:28;;;;;;;;;;;;;;;;;;5038088;28;20402;-83
2023/01/21 11:00:54;;;;;;;;;;;;;;;;;;5027777;28;20309;-84
2023/01/21 11:03:20;;;;;;;;;;;;;;;;;;5050412;28;21159;-84
2023/01/21 11:05:46;;;;;;;;;;;;;;;;;;5048420;28;19932;-83
2023/01/21 11:08:12;;;;;;;;;;;;;;;;;;5023445;28;21858;-84
2023/01/21 11:10:38;;;;;;;;;;;;;;;;;;5057899;28;19943;-83
2023/01/21 11:13:04;;;;;;;;;;;;;;;;;;5041757;28;19916;-84
2023/01/21 11:15:30;;;;;;;;;;;;;;;;;;5040494;28;19921;-84
2023/01/21 11:17:57;;;;;;;;;;;;;;;;;;5038271;28;19931;-83
2023/01/21 11:20:23;;;;;;;;;;;;;;;;;;5037075;28;19924;-83
2023/01/21 11:22:49;;;;;;;;;;;;;;;;;;5041769;28;19971;-84
2023/01/21 11:25:17;;;;;;;;;;;;;;;;;;5036496;28;20019;-84
2023/01/21 11:27:43;;;;;;;;;;;;;;;;;;5039200;28;19947;-83
2023/01/21 11:30:09;;;;;;;;;;;;;;;;;;5024844;28;19923;-84
2023/01/21 11:32:34;;;;;;;;;;;;;;;;;;5039937;28;19924;-84
2023/01/21 11:35:00;;;;;;;;;;;;;;;;;;5018391;28;20496;-84
2023/01/21 11:37:26;;;;;;;;;;;;;;;;;;5013645;28;19928;-84
2023/01/21 11:39:52;;;;;;;;;;;;;;;;;;5014302;28;19931;-83
2023/01/21 11:42:18;;;;;;;;;;;;;;;;;;5022022;28;19924;-83
2023/01/21 11:44:44;;;;;;;;;;;;;;;;;;5016947;28;20059;-84
2023/01/21 11:47:10;;;;;;;;;;;;;;;;;;5032775;28;19924;-84
2023/01/21 11:49:36;;;;;;;;;;;;;;;;;;5040551;28;20454;-83
2023/01/21 11:52:02;;;;;;;;;;;;;;;;;;5035346;28;19924;-84
2023/01/21 11:54:28;;;;;;;;;;;;;;;;;;5019866;28;19920;-85
2023/01/21 11:56:54;;;;;;;;;;;;;;;;;;5012480;28;20392;-84
2023/01/21 11:59:20;;;;;;;;;;;;;;;;;;5021490;28;20037;-84
2023/01/21 12:01:46;;;;;;;;;;;;;;;;;;5033546;28;20676;-83
2023/01/21 12:04:14;;;;;;;;;;;;;;;;;;5036873;28;20017;-84
2023/01/21 12:06:40;;;;;;;;;;;;;;;;;;5015987;28;19931;-85
2023/01/21 12:09:06;;;;;;;;;;;;;;;;;;5030747;28;19924;-84
2023/01/21 12:11:32;;;;;;;;;;;;;;;;;;5020280;28;19929;-84
2023/01/21 12:13:58;;;;;;;;;;;;;;;;;;5009440;28;19924;-84
2023/01/21 12:16:24;;;;;;;;;;;;;;;;;;5031985;28;19931;-83
2023/01/21 12:18:50;;;;;;;;;;;;;;;;;;5049256;28;20007;-83
2023/01/21 12:21:16;;;;;;;;;;;;;;;;;;5055441;28;19974;-84
2023/01/21 12:23:42;;;;;;;;;;;;;;;;;;5034691;28;20019;-84
2023/01/21 12:26:08;;;;;;;;;;;;;;;;;;5036954;28;19955;-84
2023/01/21 12:28:50;;;;;;;;;;;;;;;;;;5055091;23;20387;-82
2023/01/21 12:31:23;;;;;;;;;;;;;;;;;;5029213;28;20373;-83
2023/01/21 12:33:58;;;;;;;;;;;;;;;;;;5014346;28;20381;-83
2023/01/21 12:36:24;;;;;;;;;;;;;;;;;;5012524;28;19975;-82
2023/01/21 12:38:53;;;;;;;;;;;;;;;;;;5014404;28;19921;-83
2023/01/21 12:41:26;;;;;;;;;;;;;;;;;;5009466;28;20011;-81
2023/01/21 12:43:52;;;;;;;;;;;;;;;;;;5001400;28;20371;-82
2023/01/21 12:46:23;;;;;;;;;;;;;;;;;;4997937;28;20004;-82
2023/01/21 12:48:52;;;;;;;;;;;;;;;;;;5005070;28;20627;-81
2023/01/21 12:51:18;;;;;;;;;;;;;;;;;;5001945;28;19936;-84
2023/01/21 12:54:11;;;;;;;;;;;;;;;;;;;;;
2023/01/21 12:56:38;;;;;;;;;;;;;;;;;;5012250;28;19925;-82
2023/01/21 12:59:12;;;;;;;;;;;;;;;;;;5007364;28;20399;-83
2023/01/21 13:01:42;;;;;;;;;;;;;;;;;;5017679;28;20462;-83
2023/01/21 13:04:14;;;;;;;;;;;;;;;;;;5004982;28;19978;-84
2023/01/21 13:09:47;;;;;;;;;;;;;;;;;;5028706;28;20015;-83
2023/01/21 13:12:13;;;;;;;;;;;;;;;;;;5001329;28;20639;-81
2023/01/21 13:14:42;;;;;;;;;;;;;;;;;;4999447;28;19947;-84
2023/01/21 13:17:11;;;;;;;;;;;;;;;;;;5015011;28;19925;-85
2023/01/21 13:19:43;;;;;;;;;;;;;;;;;;4995014;28;20560;-84
2023/01/21 13:22:20;;;;;;;;;;;;;;;;;;5000615;28;19917;-84
2023/01/21 13:25:07;;;;;;;;;;;;;;;;;;5003993;28;22231;-84
2023/01/21 13:27:35;;;;;;;;;;;;;;;;;;5035050;28;20304;-87
2023/01/21 13:30:05;;;;;;;;;;;;;;;;;;5020346;28;19927;-85
2023/01/21 13:32:39;;;;;;;;;;;;;;;;;;5015169;28;20004;-85
2023/01/21 13:35:08;;;;;;;;;;;;;;;;;;5000239;28;19921;-86
2023/01/21 13:37:35;;;;;;;;;;;;;;;;;;4996664;28;19916;-85
2023/01/21 13:40:07;;;;;;;;;;;;;;;;;;5017044;28;19928;-86
2023/01/21 13:42:43;;;;;;;;;;;;;;;;;;5001900;28;19924;-86
2023/01/21 13:48:00;;;;;;;;;;;;;;;;;;5015106;28;19916;-83
2023/01/21 13:50:28;;;;;;;;;;;;;;;;;;5007026;28;19986;-85
2023/01/21 13:53:02;;;;;;;;;;;;;;;;;;5017854;28;19933;-85
2023/01/21 13:55:28;;;;;;;;;;;;;;;;;;5006159;28;19952;-84
2023/01/21 13:57:54;;;;;;;;;;;;;;;;;;5008098;28;19920;-85
2023/01/21 14:00:25;;;;;;;;;;;;;;;;;;5017692;28;19917;-86
2023/01/21 14:02:51;;;;;;;;;;;;;;;;;;5018615;28;19928;-85
2023/01/21 14:05:17;;;;;;;;;;;;;;;;;;5005367;28;19921;-84
2023/01/21 14:07:44;;;;;;;;;;;;;;;;;;5018782;28;19927;-82
2023/01/21 14:10:09;;;;;;;;;;;;;;;;;;5014035;28;19917;-84
2023/01/21 14:12:42;;;;;;;;;;;;;;;;;;5000149;28;19995;-84
2023/01/21 14:15:42;;;;;;;;;;;;;;;;;;5016652;28;20399;-85
2023/01/21 14:18:24;;;;;;;;;;;;;;;;;;5000642;28;19964;-85
2023/01/21 14:20:51;;;;;;;;;;;;;;;;;;5007299;28;19921;-84
2023/01/21 14:23:44;;;;;;;;;;;;;;;;;;;;;
2023/01/21 14:26:16;;;;;;;;;;;;;;;;;;5025677;28;20007;-83
2023/01/21 14:29:05;;;;;;;;;;;;;;;;;;5023127;28;19917;-84
2023/01/21 14:31:46;;;;;;;;;;;;;;;;;;5000635;28;20028;-84
2023/01/21 14:34:12;;;;;;;;;;;;;;;;;;5032902;28;20431;-84
2023/01/21 14:36:38;;;;;;;;;;;;;;;;;;5015362;28;20008;-84
2023/01/21 14:39:30;;;;;;;;;;;;;;;;;;4965162;28;19941;-84
2023/01/21 14:44:48;;;;;;;;;;;;;;;;;;5029706;28;19924;-83
2023/01/21 14:47:21;;;;;;;;;;;;;;;;;;5035071;28;19932;-85
2023/01/21 14:49:47;;;;;;;;;;;;;;;;;;5007875;28;19999;-83
2023/01/21 14:52:30;;;;;;;;;;;;;;;;;;;;;
2023/01/21 14:54:58;;;;;;;;;;;;;;;;;;5023092;28;19928;-86
2023/01/21 14:57:24;;;;;;;;;;;;;;;;;;5003764;28;19925;-84
2023/01/21 14:59:50;;;;;;;;;;;;;;;;;;5002339;28;19923;-90
2023/01/21 15:02:26;;;;;;;;;;;;;;;;;;5004167;28;19924;-89
2023/01/21 15:05:04;;;;;;;;;;;;;;;;;;5001497;28;19943;-89
2023/01/21 15:07:45;;;;;;;;;;;;;;;;;;5019553;28;19990;-90
2023/01/21 15:10:33;;;;;;;;;;;;;;;;;;5022507;28;19940;-87
2023/01/21 15:13:19;;;;;;;;;;;;;;;;;;5016991;28;19929;-88
2023/01/21 15:15:57;;;;;;;;;;;;;;;;;;4998605;28;19923;-88
2023/01/21 15:18:57;;;;;;;;;;;;;;;;;;5034543;28;19924;-89
2023/01/21 15:21:27;;;;;;;;;;;;;;;;;;5016836;28;19948;-88
2023/01/21 15:23:53;;;;;;;;;;;;;;;;;;5022578;28;19921;-88
2023/01/21 15:26:19;;;;;;;;;;;;;;;;;;5023454;28;19925;-89
2023/01/21 15:29:00;;;;;;;;;;;;;;;;;;5014733;28;20094;-89
2023/01/21 15:34:20;;;;;;;;;;;;;;;;;;5030642;28;19928;-87
2023/01/21 15:37:20;;;;;;;;;;;;;;;;;;5019679;28;19925;-88
2023/01/21 15:39:57;;;;;;;;;;;;;;;;;;;;;
2023/01/21 15:42:37;;;;;;;;;;;;;;;;;;4997900;28;20394;-87
2023/01/21 15:48:10;;;;;;;;;;;;;;;;;;5010538;28;19925;-87
2023/01/21 15:50:39;;;;;;;;;;;;;;;;;;5001641;28;20379;-89
2023/01/21 15:53:14;;;;;;;;;;;;;;;;;;5016345;28;19991;-87
2023/01/21 15:55:42;;;;;;;;;;;;;;;;;;5002992;28;20427;-88
2023/01/21 15:58:20;;;;;;;;;;;;;;;;;;5013634;28;20366;-86
2023/01/21 16:00:49;;;;;;;;;;;;;;;;;;5018576;28;19956;-86
2023/01/21 16:03:25;;;;;;;;;;;;;;;;;;;;;
2023/01/21 16:06:03;;;;;;;;;;;;;;;;;;5032265;28;19924;-87
2023/01/21 16:08:32;;;;;;;;;;;;;;;;;;4981763;28;19928;-87
2023/01/21 16:11:09;;;;;;;;;;;;;;;;;;5002859;28;19924;-85
2023/01/21 16:13:47;;;;;;;;;;;;;;;;;;5033962;28;19924;-88
2023/01/21 16:16:19;;;;;;;;;;;;;;;;;;5012027;28;20299;-86
2023/01/21 16:18:48;;;;;;;;;;;;;;;;;;4996306;28;19917;-87
2023/01/21 16:21:16;;;;;;;;;;;;;;;;;;5012556;28;19928;-87
2023/01/21 16:23:45;;;;;;;;;;;;;;;;;;5014658;28;20340;-87
2023/01/21 16:26:11;;;;;;;;;;;;;;;;;;5036863;28;21300;-87
2023/01/21 16:28:40;;;;;;;;;;;;;;;;;;5008411;28;19969;-86
2023/01/21 16:31:08;;;;;;;;;;;;;;;;;;5000854;28;20375;-86
2023/01/21 16:33:37;;;;;;;;;;;;;;;;;;5036934;28;19928;-87
2023/01/21 16:36:06;;;;;;;;;;;;;;;;;;5037677;28;19931;-86
2023/01/21 16:38:32;;;;;;;;;;;;;;;;;;5025769;28;19921;-87
2023/01/21 16:40:58;;;;;;;;;;;;;;;;;;5023103;28;19921;-86
2023/01/21 16:43:33;;;;;;;;;;;;;;;;;;5025214;28;20419;-86
2023/01/21 16:45:59;;;;;;;;;;;;;;;;;;5011142;28;20019;-86
2023/01/21 16:48:28;;;;;;;;;;;;;;;;;;5004350;28;19917;-85
2023/01/21 16:50:54;;;;;;;;;;;;;;;;;;5025704;28;19974;-86
2023/01/21 16:53:20;;;;;;;;;;;;;;;;;;5025658;28;20724;-85
2023/01/21 16:55:46;;;;;;;;;;;;;;;;;;5043362;28;20406;-85
2023/01/21 16:58:12;;;;;;;;;;;;;;;;;;5021202;28;20343;-85
2023/01/21 17:00:38;;;;;;;;;;;;;;;;;;5008389;28;19917;-86
2023/01/21 17:03:09;;;;;;;;;;;;;;;;;;5010034;28;19960;-87
2023/01/21 17:05:35;;;;;;;;;;;;;;;;;;5024352;28;19920;-86
2023/01/21 17:08:04;;;;;;;;;;;;;;;;;;5005837;28;20379;-86
2023/01/21 17:10:30;;;;;;;;;;;;;;;;;;5039571;28;19956;-86